Time;durP1;ratioP1;P1;durP2;ratioP2;P2;SDS_P1;SDS_P2;PMS_P1;PMS_P2;Temp;Humidity;BMP_temperature;BMP_pressure;BME280_temperature;BME280_humidity;BME280_pressure;Samples;Min_cycle;Max_cycle;Signal;HPM_P1;HPM_P2
2020/12/06 00:00:59;;;;;;;32.17;29.47;;;3.20;99.90;;;;;;5095435;28;20175;-66
2020/12/06 00:03:24;;;;;;;31.30;27.90;;;3.20;99.90;;;;;;5094838;28;20733;-66
2020/12/06 00:05:50;;;;;;;34.07;30.80;;;3.20;99.90;;;;;;5094941;28;20188;-66
2020/12/06 00:08:15;;;;;;;36.63;31.37;;;3.10;99.90;;;;;;5095624;28;20226;-66
2020/12/06 00:10:41;;;;;;;30.80;27.70;;;3.20;99.90;;;;;;5094933;28;20161;-66
2020/12/06 00:13:06;;;;;;;32.03;29.10;;;3.20;99.90;;;;;;5094851;28;20580;-66
2020/12/06 00:15:32;;;;;;;35.93;32.53;;;3.20;99.90;;;;;;5094584;28;20214;-66
2020/12/06 00:17:57;;;;;;;32.97;30.10;;;3.30;99.90;;;;;;5094707;28;20161;-66
2020/12/06 00:20:23;;;;;;;37.73;34.37;;;3.30;99.90;;;;;;5095145;28;20680;-66
2020/12/06 00:22:49;;;;;;;37.57;34.17;;;3.30;99.90;;;;;;5094555;28;20247;-66
2020/12/06 00:25:14;;;;;;;40.10;36.40;;;3.30;99.90;;;;;;5094620;28;20222;-66
2020/12/06 00:27:40;;;;;;;37.23;33.70;;;3.40;99.90;;;;;;5094909;28;20168;-66
2020/12/06 00:30:08;;;;;;;37.83;34.03;;;3.30;99.90;;;;;;5094956;28;20176;-66
2020/12/06 00:32:34;;;;;;;35.67;32.47;;;3.30;99.90;;;;;;5094426;28;20526;-66
2020/12/06 00:34:59;;;;;;;33.63;30.80;;;3.30;99.90;;;;;;5094650;28;20264;-66
2020/12/06 00:37:25;;;;;;;39.30;35.33;;;3.30;99.90;;;;;;5095030;28;20180;-66
2020/12/06 00:39:50;;;;;;;40.23;36.70;;;3.30;99.90;;;;;;5094330;28;20526;-66
2020/12/06 00:42:16;;;;;;;40.27;36.97;;;3.30;99.90;;;;;;5094483;28;20179;-66
2020/12/06 00:44:42;;;;;;;32.10;29.27;;;3.40;99.90;;;;;;5094473;28;20195;-66
2020/12/06 00:47:07;;;;;;;37.30;33.97;;;3.40;99.90;;;;;;5094454;28;20176;-66
2020/12/06 00:49:33;;;;;;;35.87;32.73;;;3.50;99.90;;;;;;5094112;28;20205;-67
2020/12/06 00:51:58;;;;;;;36.87;33.60;;;3.40;99.90;;;;;;5094415;28;20176;-66
2020/12/06 00:54:24;;;;;;;38.33;34.97;;;3.40;99.90;;;;;;5094056;28;20691;-67
2020/12/06 00:56:56;;;;;;;33.77;30.47;;;3.40;99.90;;;;;;5093987;28;20224;-66
2020/12/06 00:59:23;;;;;;;46.42;42.60;;;3.30;99.90;;;;;;5093760;28;20454;-66
2020/12/06 01:01:49;;;;;;;43.47;40.08;;;3.30;99.90;;;;;;5093982;28;20172;-66
2020/12/06 01:04:15;;;;;;;36.07;33.20;;;3.30;99.90;;;;;;5094467;28;20214;-66
2020/12/06 01:06:41;;;;;;;40.13;36.83;;;3.30;99.90;;;;;;5094439;28;20454;-66
2020/12/06 01:09:06;;;;;;;41.93;38.20;;;3.40;99.90;;;;;;5093971;28;20179;-66
2020/12/06 01:11:32;;;;;;;38.37;35.30;;;3.30;99.90;;;;;;5093895;28;20251;-67
2020/12/06 01:13:58;;;;;;;39.90;36.50;;;3.40;99.90;;;;;;5094142;28;20564;-66
2020/12/06 01:16:24;;;;;;;41.97;38.40;;;3.40;99.90;;;;;;5094271;28;20192;-66
2020/12/06 01:18:50;;;;;;;39.45;36.35;;;3.40;99.90;;;;;;5094224;28;20192;-66
2020/12/06 01:21:15;;;;;;;33.17;30.47;;;3.30;99.90;;;;;;5094387;28;20195;-66
2020/12/06 01:23:41;;;;;;;41.17;37.70;;;3.20;99.90;;;;;;5093662;28;20169;-66
2020/12/06 01:26:10;;;;;;;42.77;39.37;;;3.20;99.90;;;;;;5093886;28;20192;-66
2020/12/06 01:28:36;;;;;;;46.42;42.63;;;3.30;99.90;;;;;;5094024;28;20245;-67
2020/12/06 01:31:01;;;;;;;47.00;43.30;;;3.20;99.90;;;;;;5094097;28;20522;-66
2020/12/06 01:33:27;;;;;;;52.33;47.63;;;3.20;99.90;;;;;;5093152;28;20192;-66
2020/12/06 01:35:52;;;;;;;48.17;44.80;;;3.20;99.90;;;;;;5093708;28;20189;-67
2020/12/06 01:38:18;;;;;;;49.27;45.50;;;3.20;99.90;;;;;;5093733;28;20202;-66
2020/12/06 01:40:43;;;;;;;42.20;38.70;;;3.20;99.90;;;;;;5093773;28;20164;-66
2020/12/06 01:43:09;;;;;;;47.77;43.67;;;3.20;99.90;;;;;;5093916;28;20587;-66
2020/12/06 01:45:36;;;;;;;48.27;44.53;;;3.20;99.90;;;;;;5093531;28;20245;-66
2020/12/06 01:48:07;;;;;;;53.47;49.17;;;3.20;99.90;;;;;;5094125;28;20413;-66
2020/12/06 01:50:34;;;;;;;49.45;46.42;;;3.20;99.90;;;;;;5093660;28;20179;-66
2020/12/06 01:53:00;;;;;;;46.05;41.38;;;3.20;99.90;;;;;;5093429;28;20244;-66
2020/12/06 01:55:26;;;;;;;48.53;43.93;;;3.20;99.90;;;;;;5093865;28;20271;-66
2020/12/06 01:57:59;;;;;;;45.95;42.45;;;3.10;99.90;;;;;;5093782;28;20183;-66
2020/12/06 02:00:25;;;;;;;49.00;44.83;;;3.10;99.90;;;;;;5093875;28;20287;-66
2020/12/06 02:02:50;;;;;;;45.83;42.27;;;3.20;99.90;;;;;;5093403;28;20639;-66
2020/12/06 02:05:16;;;;;;;43.97;40.20;;;3.20;99.90;;;;;;5093335;28;20185;-66
2020/12/06 02:07:43;;;;;;;48.20;44.30;;;3.20;99.90;;;;;;5093474;28;20176;-66
2020/12/06 02:10:08;;;;;;;44.20;40.70;;;3.20;99.90;;;;;;5093193;28;20249;-66
2020/12/06 02:12:34;;;;;;;44.37;40.57;;;3.20;99.90;;;;;;5096106;28;20678;-66
2020/12/06 02:14:59;;;;;;;43.80;40.17;;;3.20;99.90;;;;;;5097282;28;20523;-66
2020/12/06 02:17:26;;;;;;;41.33;37.80;;;3.20;99.90;;;;;;5097733;28;20179;-66
2020/12/06 02:19:54;;;;;;;44.63;40.88;;;3.30;99.90;;;;;;5097056;28;20215;-66
2020/12/06 02:22:20;;;;;;;44.55;40.85;;;3.30;99.90;;;;;;5097003;28;20179;-66
2020/12/06 02:24:45;;;;;;;41.80;38.30;;;3.30;99.90;;;;;;5097204;28;20188;-66
2020/12/06 02:27:11;;;;;;;42.03;38.23;;;3.30;99.90;;;;;;5097421;28;20173;-66
2020/12/06 02:29:36;;;;;;;31.77;28.80;;;3.30;99.90;;;;;;5097409;28;20168;-66
2020/12/06 02:32:02;;;;;;;43.33;39.93;;;3.40;99.90;;;;;;5097114;28;20164;-66
2020/12/06 02:34:27;;;;;;;45.00;40.80;;;3.40;99.90;;;;;;5096655;28;20522;-67
2020/12/06 02:36:53;;;;;;;36.17;32.63;;;3.40;99.90;;;;;;5096673;28;20168;-66
2020/12/06 02:39:19;;;;;;;40.87;31.43;;;3.40;99.90;;;;;;5096239;28;20242;-66
2020/12/06 02:41:45;;;;;;;37.87;34.20;;;3.40;99.90;;;;;;5096902;28;20168;-67
2020/12/06 02:44:13;;;;;;;37.22;32.05;;;3.40;99.90;;;;;;5097204;28;20164;-66
2020/12/06 02:46:40;;;;;;;35.90;32.10;;;3.50;99.90;;;;;;5097102;28;20632;-66
2020/12/06 02:49:07;;;;;;;38.40;34.95;;;3.40;99.90;;;;;;5096558;28;20168;-66
2020/12/06 02:51:33;;;;;;;42.72;38.75;;;3.50;99.90;;;;;;5096700;28;20176;-66
2020/12/06 02:53:58;;;;;;;37.17;33.15;;;3.50;99.90;;;;;;5096601;28;20615;-66
2020/12/06 02:56:24;;;;;;;39.27;35.63;;;3.40;99.90;;;;;;5096764;28;20227;-66
2020/12/06 02:58:50;;;;;;;38.53;34.53;;;3.40;99.90;;;;;;5096832;28;20188;-66
2020/12/06 03:01:16;;;;;;;33.80;30.30;;;3.40;99.90;;;;;;5096144;28;20172;-66
2020/12/06 03:03:41;;;;;;;36.10;32.60;;;3.40;99.90;;;;;;5096236;28;20395;-66
2020/12/06 03:06:07;;;;;;;37.43;34.03;;;3.40;99.90;;;;;;5096373;28;20242;-66
2020/12/06 03:08:33;;;;;;;37.90;33.80;;;3.50;99.90;;;;;;5096016;28;20169;-66
2020/12/06 03:10:59;;;;;;;41.70;38.03;;;3.50;99.90;;;;;;5096607;28;20398;-66
2020/12/06 03:13:24;;;;;;;42.23;38.50;;;3.50;99.90;;;;;;5095856;28;20661;-66
2020/12/06 03:15:50;;;;;;;40.40;37.07;;;3.50;99.90;;;;;;5096622;28;20215;-66
2020/12/06 03:18:16;;;;;;;46.57;42.43;;;3.50;99.90;;;;;;5096383;28;20678;-66
2020/12/06 03:20:41;;;;;;;44.93;41.53;;;3.50;99.90;;;;;;5096247;28;20239;-66
2020/12/06 03:23:07;;;;;;;38.03;34.83;;;3.50;99.90;;;;;;5095529;28;20637;-66
2020/12/06 03:25:33;;;;;;;43.63;39.70;;;3.50;99.90;;;;;;5096279;28;20241;-66
2020/12/06 03:27:58;;;;;;;44.97;41.30;;;3.60;99.90;;;;;;5096055;28;20188;-66
2020/12/06 03:30:24;;;;;;;35.17;32.20;;;3.60;99.90;;;;;;5096129;28;20622;-66
2020/12/06 03:32:49;;;;;;;34.63;31.57;;;3.60;99.90;;;;;;5095374;28;20175;-67
2020/12/06 03:35:15;;;;;;;38.90;35.60;;;3.60;99.90;;;;;;5095399;28;20208;-66
2020/12/06 03:37:40;;;;;;;34.53;31.43;;;3.70;99.90;;;;;;5095867;28;20200;-66
2020/12/06 03:40:06;;;;;;;41.87;37.60;;;3.70;99.90;;;;;;5095780;28;20208;-66
2020/12/06 03:42:31;;;;;;;32.77;29.77;;;3.70;99.90;;;;;;5095368;28;20169;-67
2020/12/06 03:44:57;;;;;;;40.70;36.53;;;3.70;99.90;;;;;;5095853;28;20185;-66
2020/12/06 03:47:23;;;;;;;48.27;43.17;;;3.70;99.90;;;;;;5095451;28;20168;-66
2020/12/06 03:49:49;;;;;;;53.97;48.50;;;3.80;99.90;;;;;;5095505;28;20168;-66
2020/12/06 03:52:15;;;;;;;53.15;48.20;;;3.80;99.90;;;;;;5095313;28;20183;-66
2020/12/06 03:54:40;;;;;;;47.50;43.37;;;3.70;99.90;;;;;;5095449;28;20259;-67
2020/12/06 03:57:06;;;;;;;44.47;39.97;;;3.70;99.90;;;;;;5094810;28;20177;-66
2020/12/06 03:59:31;;;;;;;48.83;44.50;;;3.80;99.90;;;;;;5095517;28;20249;-66
2020/12/06 04:01:57;;;;;;;46.23;42.33;;;3.80;99.90;;;;;;5094964;28;20161;-66
2020/12/06 04:04:23;;;;;;;47.63;43.90;;;3.80;99.90;;;;;;5095316;28;20177;-66
2020/12/06 04:06:48;;;;;;;42.50;38.83;;;3.90;99.90;;;;;;5095379;28;20199;-66
2020/12/06 04:09:14;;;;;;;44.73;40.70;;;3.80;99.90;;;;;;5095219;28;20267;-66
2020/12/06 04:11:40;;;;;;;39.87;36.50;;;3.90;99.90;;;;;;5095456;28;20173;-66
2020/12/06 04:14:05;;;;;;;44.80;41.20;;;3.90;99.90;;;;;;5094745;28;20195;-66
2020/12/06 04:16:31;;;;;;;43.93;40.50;;;3.90;99.90;;;;;;5094833;28;20530;-66
2020/12/06 04:18:56;;;;;;;37.80;34.20;;;3.90;99.90;;;;;;5094606;28;20198;-66
2020/12/06 04:21:22;;;;;;;32.87;30.07;;;3.90;99.90;;;;;;5095008;28;20247;-67
2020/12/06 04:23:47;;;;;;;42.77;39.40;;;3.90;99.90;;;;;;5094937;28;20179;-66
2020/12/06 04:26:13;;;;;;;37.60;34.20;;;3.90;99.90;;;;;;5094449;28;20184;-66
2020/12/06 04:28:39;;;;;;;37.23;34.33;;;3.90;99.90;;;;;;5095176;28;20169;-67
2020/12/06 04:31:04;;;;;;;34.30;31.07;;;3.90;99.90;;;;;;5094622;28;20177;-67
2020/12/06 04:33:30;;;;;;;36.53;32.93;;;3.90;99.90;;;;;;5093707;28;20184;-67
2020/12/06 04:35:55;;;;;;;45.17;41.40;;;3.90;99.90;;;;;;5094471;28;20188;-66
2020/12/06 04:38:21;;;;;;;42.67;39.10;;;3.90;99.90;;;;;;5094848;28;20204;-66
2020/12/06 04:40:46;;;;;;;37.63;34.20;;;3.90;99.90;;;;;;5094599;28;20168;-66
2020/12/06 04:43:14;;;;;;;42.07;38.83;;;3.90;99.90;;;;;;5094340;28;20169;-67
2020/12/06 04:45:42;;;;;;;39.33;36.33;;;3.90;99.90;;;;;;5094297;28;20524;-66
2020/12/06 04:48:09;;;;;;;31.45;28.85;;;3.90;99.90;;;;;;5094573;28;20251;-66
2020/12/06 04:50:37;;;;;;;41.05;37.83;;;4.00;99.90;;;;;;5094573;28;20175;-66
2020/12/06 04:53:06;;;;;;;37.60;34.25;;;4.00;99.90;;;;;;5094035;28;20169;-66
2020/12/06 04:55:34;;;;;;;42.40;39.00;;;4.00;99.90;;;;;;5094208;28;20192;-66
2020/12/06 04:58:03;;;;;;;36.65;33.30;;;4.00;99.90;;;;;;5094314;28;20520;-66
2020/12/06 05:00:37;;;;;;;36.28;33.05;;;3.90;99.90;;;;;;5094065;28;20196;-66
2020/12/06 05:03:06;;;;;;;40.45;37.15;;;3.90;99.90;;;;;;5093925;28;20200;-66
2020/12/06 05:05:35;;;;;;;39.10;36.10;;;4.00;99.90;;;;;;5094316;28;20700;-66
2020/12/06 05:08:04;;;;;;;39.05;35.70;;;4.00;99.90;;;;;;5094638;28;20172;-66
2020/12/06 05:10:34;;;;;;;39.67;36.50;;;4.00;99.90;;;;;;5093862;28;20175;-66
2020/12/06 05:13:00;;;;;;;36.67;33.60;;;4.00;99.90;;;;;;5094025;28;20177;-66
2020/12/06 05:15:26;;;;;;;44.70;40.70;;;3.90;99.90;;;;;;5094178;28;20188;-66
2020/12/06 05:17:54;;;;;;;44.23;40.90;;;4.00;99.90;;;;;;5094176;28;20180;-67
2020/12/06 05:20:19;;;;;;;39.33;35.97;;;4.00;99.90;;;;;;5094217;28;20200;-66
2020/12/06 05:22:48;;;;;;;42.27;38.70;;;4.00;99.90;;;;;;5093878;28;20555;-66
2020/12/06 05:25:14;;;;;;;40.67;37.22;;;4.00;99.90;;;;;;5093799;28;20188;-66
2020/12/06 05:27:41;;;;;;;34.55;31.70;;;4.10;99.90;;;;;;5093974;28;20173;-66
2020/12/06 05:30:07;;;;;;;36.78;33.13;;;4.10;99.90;;;;;;5093740;28;20288;-66
2020/12/06 05:32:36;;;;;;;38.03;35.00;;;4.00;99.90;;;;;;5093673;28;20647;-66
2020/12/06 05:35:03;;;;;;;38.55;35.50;;;4.00;99.90;;;;;;5093797;28;20207;-66
2020/12/06 05:37:29;;;;;;;34.22;31.23;;;4.00;99.90;;;;;;5093553;28;20605;-66
2020/12/06 05:40:05;;;;;;;34.65;31.85;;;4.00;99.90;;;;;;5093418;28;20240;-66
2020/12/06 05:42:35;;;;;;;36.83;33.33;;;4.10;99.90;;;;;;5093444;28;20195;-67
2020/12/06 05:45:02;;;;;;;37.97;34.58;;;4.10;99.90;;;;;;5094336;28;20187;-66
2020/12/06 05:47:28;;;;;;;33.45;30.48;;;4.10;99.90;;;;;;5098693;28;20604;-66
2020/12/06 05:49:56;;;;;;;40.17;37.00;;;4.10;99.90;;;;;;5098323;28;20168;-67
2020/12/06 05:52:22;;;;;;;44.20;40.80;;;4.10;99.90;;;;;;5097553;28;20934;-67
2020/12/06 05:54:48;;;;;;;38.35;35.05;;;4.20;99.90;;;;;;5097564;28;20196;-66
2020/12/06 05:57:14;;;;;;;34.63;31.73;;;4.20;99.90;;;;;;5097912;28;20197;-66
2020/12/06 05:59:41;;;;;;;38.77;35.47;;;4.20;99.90;;;;;;5097918;28;20445;-66
2020/12/06 06:02:07;;;;;;;40.35;37.17;;;4.10;99.90;;;;;;5097651;28;20402;-67
2020/12/06 06:04:40;;;;;;;34.38;31.20;;;4.10;99.90;;;;;;5097908;28;20173;-67
2020/12/06 06:07:17;;;;;;;39.53;36.22;;;4.10;99.90;;;;;;5097523;28;20585;-66
2020/12/06 06:09:46;;;;;;;37.22;34.17;;;4.10;99.90;;;;;;5097611;28;20633;-67
2020/12/06 06:12:23;;;;;;;41.92;38.15;;;4.10;99.90;;;;;;5097450;28;20238;-67
2020/12/06 06:14:50;;;;;;;37.35;34.50;;;4.10;99.90;;;;;;5097277;28;20192;-67
2020/12/06 06:17:16;;;;;;;42.60;38.53;;;4.10;99.90;;;;;;5097148;28;20176;-66
2020/12/06 06:19:43;;;;;;;42.90;39.30;;;4.10;99.90;;;;;;5097156;28;20265;-67
2020/12/06 06:22:10;;;;;;;44.33;40.30;;;4.10;99.90;;;;;;5097097;28;20877;-67
2020/12/06 06:24:37;;;;;;;42.78;39.20;;;4.10;99.90;;;;;;5097258;28;20226;-66
2020/12/06 06:27:03;;;;;;;49.70;45.63;;;4.10;99.90;;;;;;5097476;28;20215;-67
2020/12/06 06:29:29;;;;;;;38.90;35.67;;;4.10;99.90;;;;;;5097025;28;20172;-66
2020/12/06 06:31:56;;;;;;;36.92;34.00;;;4.10;99.90;;;;;;5097191;28;20406;-66
2020/12/06 06:34:28;;;;;;;35.47;31.83;;;4.10;99.90;;;;;;5096743;28;20258;-66
2020/12/06 06:36:54;;;;;;;38.88;35.65;;;4.10;99.90;;;;;;5097305;28;20530;-66
2020/12/06 06:39:22;;;;;;;45.13;41.57;;;4.10;99.90;;;;;;5097076;28;20192;-66
2020/12/06 06:42:07;;;;;;;35.92;32.63;;;4.10;99.90;;;;;;5097287;28;20196;-66
2020/12/06 06:44:39;;;;;;;37.22;33.47;;;4.10;99.90;;;;;;5096906;28;20183;-67
2020/12/06 06:47:07;;;;;;;39.67;36.30;;;4.00;99.90;;;;;;5097088;28;20163;-67
2020/12/06 06:49:48;;;;;;;41.45;37.65;;;4.00;99.90;;;;;;5097042;28;20222;-67
2020/12/06 06:52:16;;;;;;;41.15;37.60;;;4.00;99.90;;;;;;5096548;28;20168;-67
2020/12/06 06:54:49;;;;;;;44.80;40.50;;;4.00;99.90;;;;;;5096388;28;20176;-67
2020/12/06 06:57:16;;;;;;;44.47;40.85;;;4.00;99.90;;;;;;5096182;28;20152;-66
2020/12/06 06:59:46;;;;;;;50.05;45.70;;;4.00;99.90;;;;;;5096605;28;20200;-66
2020/12/06 07:02:26;;;;;;;37.85;34.25;;;4.00;99.90;;;;;;5096867;28;20513;-67
2020/12/06 07:04:52;;;;;;;40.80;37.13;;;3.90;99.90;;;;;;5096409;28;20196;-67
2020/12/06 07:07:49;;;;;;;38.13;34.28;;;4.00;99.90;;;;;;5096257;28;21255;-67
2020/12/06 07:10:16;;;;;;;41.08;37.38;;;4.00;99.90;;;;;;5096372;28;20630;-66
2020/12/06 07:12:56;;;;;;;40.15;36.55;;;3.90;99.90;;;;;;5096133;28;20176;-67
2020/12/06 07:15:24;;;;;;;36.28;32.35;;;3.90;99.90;;;;;;5096667;28;20271;-66
2020/12/06 07:17:51;;;;;;;37.08;33.63;;;4.00;99.90;;;;;;5096313;28;20621;-67
2020/12/06 07:20:18;;;;;;;35.42;31.90;;;4.00;99.90;;;;;;5096075;28;20318;-66
2020/12/06 07:22:46;;;;;;;40.47;36.20;;;4.00;99.90;;;;;;5095914;28;20569;-67
2020/12/06 07:25:13;;;;;;;39.55;35.65;;;4.00;99.90;;;;;;5096016;28;20180;-66
2020/12/06 07:27:39;;;;;;;38.80;33.03;;;4.10;99.90;;;;;;5096036;28;20256;-66
2020/12/06 07:30:07;;;;;;;43.38;38.95;;;4.10;99.90;;;;;;5095967;28;20184;-67
2020/12/06 07:32:34;;;;;;;38.47;34.88;;;4.00;99.90;;;;;;5095508;28;20168;-66
2020/12/06 07:34:59;;;;;;;41.78;37.38;;;4.10;99.90;;;;;;5095606;28;20288;-66
2020/12/06 07:37:26;;;;;;;43.37;39.40;;;4.10;99.90;;;;;;5096149;28;20646;-66
2020/12/06 07:39:51;;;;;;;50.28;45.42;;;4.10;99.90;;;;;;5095445;28;20220;-66
2020/12/06 07:42:21;;;;;;;41.03;37.20;;;4.10;99.90;;;;;;5095457;28;20211;-67
2020/12/06 07:44:49;;;;;;;38.53;34.63;;;4.20;99.90;;;;;;5095468;28;20192;-67
2020/12/06 07:47:16;;;;;;;47.67;43.70;;;4.20;99.90;;;;;;5095719;28;20554;-67
2020/12/06 07:49:50;;;;;;;42.03;36.05;;;4.20;99.90;;;;;;5094874;28;20176;-67
2020/12/06 07:52:22;;;;;;;42.72;39.17;;;4.20;99.90;;;;;;5095634;28;20211;-67
2020/12/06 07:55:05;;;;;;;43.65;39.25;;;4.20;99.90;;;;;;5095685;28;20216;-66
2020/12/06 07:57:51;;;;;;;43.05;38.30;;;4.20;99.90;;;;;;5095562;28;20176;-66
2020/12/06 08:00:20;;;;;;;46.50;41.90;;;4.20;99.90;;;;;;5095399;28;20273;-66
2020/12/06 08:03:05;;;;;;;47.88;43.63;;;4.30;99.90;;;;;;5095333;28;20176;-67
2020/12/06 08:05:36;;;;;;;41.67;37.42;;;4.30;99.90;;;;;;5095064;28;20185;-67
2020/12/06 08:08:12;;;;;;;41.38;37.33;;;4.20;99.90;;;;;;5095298;28;20247;-66
2020/12/06 08:10:40;;;;;;;42.58;38.17;;;4.30;99.90;;;;;;5095289;28;20164;-66
2020/12/06 08:13:10;;;;;;;40.28;36.55;;;4.30;99.90;;;;;;5094889;28;20176;-66
2020/12/06 08:15:36;;;;;;;46.40;41.55;;;4.30;99.90;;;;;;5095070;28;20662;-67
2020/12/06 08:18:10;;;;;;;48.13;43.73;;;4.30;99.90;;;;;;5094819;28;20176;-66
2020/12/06 08:20:36;;;;;;;43.00;39.20;;;4.30;99.90;;;;;;5094964;28;20466;-66
2020/12/06 08:23:01;;;;;;;41.93;37.43;;;4.30;99.90;;;;;;5094558;28;20513;-66
2020/12/06 08:25:29;;;;;;;44.27;40.03;;;4.30;99.90;;;;;;5094672;28;20586;-66
2020/12/06 08:27:57;;;;;;;45.45;37.60;;;4.40;99.90;;;;;;5095265;28;20222;-66
2020/12/06 08:30:27;;;;;;;41.95;37.80;;;4.30;99.90;;;;;;5093954;28;20183;-67
2020/12/06 08:33:03;;;;;;;43.55;39.05;;;4.30;99.90;;;;;;5094388;28;20251;-67
2020/12/06 08:35:47;;;;;;;47.03;42.30;;;4.30;99.90;;;;;;5094757;28;20211;-67
2020/12/06 08:38:16;;;;;;;47.10;39.17;;;4.30;99.90;;;;;;5094848;28;20164;-67
2020/12/06 08:41:03;;;;;;;45.65;41.20;;;4.40;99.90;;;;;;5094505;28;20207;-66
2020/12/06 08:43:52;;;;;;;43.95;36.13;;;4.40;99.90;;;;;;5094350;28;20169;-66
2020/12/06 08:46:20;;;;;;;50.63;45.40;;;4.40;99.90;;;;;;5094679;28;20181;-66
2020/12/06 08:48:47;;;;;;;46.75;42.17;;;4.40;99.90;;;;;;5094840;28;20176;-66
2020/12/06 08:51:32;;;;;;;48.10;42.63;;;4.40;99.90;;;;;;5094904;28;20172;-66
2020/12/06 08:54:00;;;;;;;43.25;38.75;;;4.50;99.90;;;;;;5094215;28;20172;-66
2020/12/06 08:56:39;;;;;;;51.55;46.40;;;4.40;99.90;;;;;;5094430;28;20184;-67
2020/12/06 08:59:13;;;;;;;46.88;42.03;;;4.50;99.90;;;;;;5094569;28;20257;-66
2020/12/06 09:01:56;;;;;;;45.90;41.10;;;4.40;99.90;;;;;;5094715;28;20176;-66
2020/12/06 09:04:22;;;;;;;46.63;41.72;;;4.50;99.90;;;;;;5092804;28;20176;-66
2020/12/06 09:06:50;;;;;;;46.70;42.10;;;4.50;99.90;;;;;;5094266;28;20244;-67
2020/12/06 09:09:15;;;;;;;58.35;52.95;;;4.60;99.90;;;;;;5094080;28;20181;-67
2020/12/06 09:11:41;;;;;;;44.73;37.67;;;4.70;99.90;;;;;;5094511;28;20513;-67
2020/12/06 09:14:07;;;;;;;51.00;44.17;;;4.60;99.90;;;;;;5093788;28;20176;-66
2020/12/06 09:16:32;;;;;;;46.97;42.20;;;4.60;99.90;;;;;;5093884;28;20813;-67
2020/12/06 09:18:58;;;;;;;50.13;45.20;;;4.60;99.90;;;;;;5094138;28;20199;-67
2020/12/06 09:21:24;;;;;;;51.60;46.50;;;4.70;99.90;;;;;;5093947;28;20169;-66
2020/12/06 09:23:50;;;;;;;49.07;44.53;;;4.70;99.90;;;;;;5094029;28;20208;-66
2020/12/06 09:26:15;;;;;;;48.20;42.90;;;4.70;99.90;;;;;;5093581;28;20456;-66
2020/12/06 09:28:41;;;;;;;55.27;50.07;;;4.80;99.90;;;;;;5094313;28;20168;-67
2020/12/06 09:31:07;;;;;;;50.87;45.73;;;4.80;99.90;;;;;;5093620;28;20175;-67
2020/12/06 09:33:33;;;;;;;49.20;42.10;;;4.80;99.90;;;;;;5093369;28;20426;-66
2020/12/06 09:35:59;;;;;;;55.43;49.57;;;4.80;99.90;;;;;;5094033;28;20505;-66
2020/12/06 09:38:25;;;;;;;49.93;44.53;;;4.90;99.90;;;;;;5093956;28;20196;-67
2020/12/06 09:40:51;;;;;;;51.08;45.22;;;4.90;99.90;;;;;;5094151;28;20172;-67
2020/12/06 09:43:17;;;;;;;46.33;41.33;;;4.90;99.90;;;;;;5093724;28;20165;-67
2020/12/06 09:45:42;;;;;;;48.07;42.07;;;4.90;99.90;;;;;;5093725;28;20267;-67
2020/12/06 09:48:10;;;;;;;47.90;41.57;;;4.90;99.90;;;;;;5093744;28;20164;-67
2020/12/06 09:50:36;;;;;;;51.30;38.92;;;4.90;99.90;;;;;;5093772;28;20186;-67
2020/12/06 09:53:01;;;;;;;52.57;41.20;;;4.90;99.90;;;;;;5093526;28;20259;-67
2020/12/06 09:55:28;;;;;;;43.53;38.33;;;5.00;99.90;;;;;;5093639;28;20431;-67
2020/12/06 09:57:54;;;;;;;62.00;47.42;;;5.00;99.90;;;;;;5094032;28;20204;-66
2020/12/06 10:00:20;;;;;;;47.78;39.00;;;5.00;99.90;;;;;;5093231;28;20287;-67
2020/12/06 10:02:46;;;;;;;46.53;39.57;;;4.90;99.90;;;;;;5093261;28;20243;-67
2020/12/06 10:05:12;;;;;;;50.57;39.40;;;5.00;99.90;;;;;;5093339;28;20334;-67
2020/12/06 10:07:38;;;;;;;50.35;40.50;;;5.00;99.90;;;;;;5093899;28;20183;-66
2020/12/06 10:10:08;;;;;;;56.73;43.13;;;4.90;99.90;;;;;;5093951;28;20603;-67
2020/12/06 10:12:34;;;;;;;52.83;45.05;;;5.00;99.90;;;;;;5093798;28;20395;-67
2020/12/06 10:15:00;;;;;;;52.65;47.08;;;5.00;99.90;;;;;;5093391;28;20261;-67
2020/12/06 10:17:25;;;;;;;55.40;43.60;;;4.90;99.90;;;;;;5093626;28;20564;-67
2020/12/06 10:19:51;;;;;;;64.67;41.33;;;5.00;99.90;;;;;;5093719;28;20711;-66
2020/12/06 10:22:17;;;;;;;56.47;47.00;;;4.90;99.90;;;;;;5093712;28;20204;-66
2020/12/06 10:24:43;;;;;;;53.47;41.67;;;4.90;99.90;;;;;;5093450;28;20196;-67
2020/12/06 10:27:08;;;;;;;51.50;43.00;;;4.90;99.90;;;;;;5093760;28;20409;-67
2020/12/06 10:29:34;;;;;;;50.20;40.13;;;5.00;99.90;;;;;;5093266;28;20171;-66
2020/12/06 10:32:00;;;;;;;56.03;49.67;;;4.90;99.90;;;;;;5093347;28;20200;-67
2020/12/06 10:34:26;;;;;;;47.80;42.03;;;4.90;99.90;;;;;;5096866;28;20188;-68
2020/12/06 10:36:56;;;;;;;58.28;42.65;;;4.90;99.90;;;;;;5097281;28;20569;-67
2020/12/06 10:39:23;;;;;;;48.50;41.47;;;5.00;99.90;;;;;;5096489;28;20641;-67
2020/12/06 10:41:53;;;;;;;56.72;41.85;;;5.00;99.90;;;;;;5096954;28;20172;-66
2020/12/06 10:44:20;;;;;;;53.65;42.60;;;5.10;99.90;;;;;;5096731;28;20259;-66
2020/12/06 10:46:46;;;;;;;53.55;43.47;;;5.10;99.90;;;;;;5095349;28;20215;-67
2020/12/06 10:49:15;;;;;;;51.65;42.08;;;5.10;99.90;;;;;;5079439;28;20521;-66
2020/12/06 10:51:42;;;;;;;53.15;47.33;;;5.10;99.90;;;;;;5080561;28;20208;-66
2020/12/06 10:54:08;;;;;;;53.95;47.22;;;5.20;99.90;;;;;;5076131;28;20238;-66
2020/12/06 10:56:36;;;;;;;53.28;44.35;;;5.20;99.90;;;;;;5076069;28;20208;-67
2020/12/06 10:59:02;;;;;;;56.05;48.28;;;5.20;99.90;;;;;;5076449;28;20189;-66
2020/12/06 11:01:29;;;;;;;63.43;56.23;;;5.30;99.90;;;;;;5076433;28;20170;-66
2020/12/06 11:03:55;;;;;;;69.70;50.83;;;5.30;99.90;;;;;;5075900;28;20219;-67
2020/12/06 11:06:21;;;;;;;61.37;43.53;;;5.40;99.90;;;;;;5075965;28;20198;-67
2020/12/06 11:08:47;;;;;;;54.22;43.92;;;5.30;99.90;;;;;;5076685;28;20409;-66
2020/12/06 11:11:18;;;;;;;55.92;40.95;;;5.40;99.90;;;;;;5076155;28;20177;-65
2020/12/06 11:13:45;;;;;;;54.17;42.45;;;5.40;99.90;;;;;;5087941;28;20545;-65
2020/12/06 11:16:15;;;;;;;49.13;41.30;;;5.50;99.90;;;;;;5096600;28;20201;-65
2020/12/06 11:18:41;;;;;;;60.72;45.60;;;5.50;99.90;;;;;;5096405;28;20172;-65
2020/12/06 11:21:06;;;;;;;55.30;41.40;;;5.50;99.90;;;;;;5096592;28;20621;-65
2020/12/06 11:23:32;;;;;;;57.37;42.53;;;5.50;99.90;;;;;;5091367;28;20203;-66
2020/12/06 11:25:58;;;;;;;57.77;48.40;;;5.60;99.90;;;;;;5078445;28;20554;-65
2020/12/06 11:28:23;;;;;;;64.20;49.63;;;5.60;99.90;;;;;;5081174;28;20184;-65
2020/12/06 11:30:49;;;;;;;71.90;45.40;;;5.60;99.90;;;;;;5072339;28;20218;-65
2020/12/06 11:33:15;;;;;;;64.60;45.90;;;5.60;99.90;;;;;;5073643;28;20203;-66
2020/12/06 11:35:40;;;;;;;63.30;48.30;;;5.60;99.90;;;;;;5073935;28;20192;-66
2020/12/06 11:38:06;;;;;;;62.10;46.03;;;5.60;99.90;;;;;;5073943;28;20618;-66
2020/12/06 11:40:32;;;;;;;64.40;45.70;;;5.60;99.90;;;;;;5073663;28;20201;-66
2020/12/06 11:42:58;;;;;;;61.20;44.27;;;5.60;99.90;;;;;;5073199;28;20173;-65
2020/12/06 11:45:23;;;;;;;64.60;49.95;;;5.50;99.90;;;;;;5073113;28;20185;-65
2020/12/06 11:47:49;;;;;;;61.97;46.23;;;5.50;99.90;;;;;;5073186;28;20227;-65
2020/12/06 11:50:15;;;;;;;62.30;45.23;;;5.60;99.90;;;;;;5073035;28;20976;-64
2020/12/06 11:52:40;;;;;;;64.03;47.43;;;5.50;99.90;;;;;;5072815;28;20169;-64
2020/12/06 11:55:06;;;;;;;71.20;44.20;;;5.50;99.90;;;;;;5072853;28;20189;-64
2020/12/06 11:57:32;;;;;;;58.47;46.20;;;5.50;99.90;;;;;;5072872;28;20215;-64
2020/12/06 11:59:57;;;;;;;60.70;44.87;;;5.40;99.90;;;;;;5072693;28;20283;-64
2020/12/06 12:02:23;;;;;;;61.80;45.63;;;5.50;99.90;;;;;;5072675;28;20169;-64
2020/12/06 12:04:49;;;;;;;61.63;45.03;;;5.40;99.90;;;;;;5072433;28;20192;-64
2020/12/06 12:07:15;;;;;;;65.18;46.53;;;5.50;99.90;;;;;;5072446;28;20165;-63
2020/12/06 12:09:41;;;;;;;66.53;45.27;;;5.50;99.90;;;;;;5072522;28;20184;-64
2020/12/06 12:12:06;;;;;;;79.90;47.73;;;5.60;99.90;;;;;;5072484;28;20173;-63
2020/12/06 12:14:32;;;;;;;67.13;49.30;;;5.50;99.90;;;;;;5072201;28;20218;-64
2020/12/06 12:16:57;;;;;;;73.50;48.97;;;5.60;99.90;;;;;;5070673;28;20579;-65
2020/12/06 12:19:23;;;;;;;71.40;47.60;;;5.60;99.90;;;;;;5072361;28;20197;-65
2020/12/06 12:21:48;;;;;;;68.40;45.90;;;5.60;99.90;;;;;;5072576;28;20173;-64
2020/12/06 12:24:14;;;;;;;72.33;47.03;;;5.60;99.90;;;;;;5072541;28;20616;-64
2020/12/06 12:26:40;;;;;;;74.37;46.67;;;5.70;99.90;;;;;;5072319;28;20185;-65
2020/12/06 12:29:05;;;;;;;68.13;44.40;;;5.70;99.90;;;;;;5072386;28;20205;-64
2020/12/06 12:31:32;;;;;;;75.90;47.07;;;5.80;99.90;;;;;;5071655;28;20700;-64
2020/12/06 12:34:00;;;;;;;69.88;46.10;;;5.80;99.90;;;;;;5072013;28;20192;-64
2020/12/06 12:36:26;;;;;;;75.03;50.90;;;5.80;99.90;;;;;;5072057;28;20196;-66